KJNX

Johnston Regional Airport

Smithfield, North Carolina, USA
METAR KJNX 191510Z AUTO 26004KT 10SM OVC022 26/23 A2998 RMK AO2
Observed Flight Rules
Aug-19 @ 15:10 UTC (29 minutes ago) Marginal Visual Flight Rules
Wind Visibility Clouds
260° at 4 knots 10 miles
  • Overcast at 2,200' AGL
Temperatures Readings
Current 26°C / 79°F
Dewpoint 23°C / 73°F
Humidity 84%
Altimeter 29.98" Hg
Pressure 1015 hPa
Elevation 50
METAR KJNX 191510Z AUTO 26004KT 10SM OVC022 26/23 A2998 RMK AO2
Observed Flight Rules
Aug-19 @ 15:10 UTC
(29 minutes ago)
MVFR
Wind Visibility
260° at 4 knots 10 miles
Clouds
  • Overcast at 2,200' AGL
Temperature Dewpoint
26°C / 79°F 23°C / 73°F
Humidity Altimeter Pressure
84% 29.98" Hg 1015 hPa